Time;durP1;ratioP1;P1;durP2;ratioP2;P2;SDS_P1;SDS_P2;PMS_P1;PMS_P2;Temp;Humidity;BMP_temperature;BMP_pressure;BME280_temperature;BME280_humidity;BME280_pressure;Samples;Min_cycle;Max_cycle;Signal;HPM_P1;HPM_P2
2021/12/08 00:00:38;;;;;;;6.22;1.50;;;3.00;99.90;;;;;;5068711;28;20052;-88
2021/12/08 00:03:06;;;;;;;7.95;1.38;;;2.90;99.90;;;;;;5052541;28;20045;-87
2021/12/08 00:05:32;;;;;;;6.82;1.38;;;4.40;99.90;;;;;;5068202;28;20098;-87
2021/12/08 00:07:58;;;;;;;5.07;1.83;;;2.80;99.90;;;;;;5036755;28;20044;-86
2021/12/08 00:13:07;;;;;;;6.75;1.90;;;2.70;99.90;;;;;;5071048;28;20123;-86
2021/12/08 00:15:39;;;;;;;6.32;1.80;;;2.60;99.90;;;;;;5052982;28;20102;-85
2021/12/08 00:18:07;;;;;;;3.20;2.30;;;2.60;99.90;;;;;;5069290;28;20085;-87
2021/12/08 00:20:33;;;;;;;7.35;2.17;;;2.60;99.90;;;;;;5071150;28;20115;-86
2021/12/08 00:23:02;;;;;;;4.88;1.58;;;2.60;99.90;;;;;;5069599;28;20055;-86
2021/12/08 00:25:29;;;;;;;9.55;1.88;;;4.90;99.90;;;;;;5052521;28;20051;-86
2021/12/08 00:27:55;;;;;;;7.10;2.60;;;4.10;99.90;;;;;;5051918;28;20400;-85
2021/12/08 00:30:22;;;;;;;7.00;2.05;;;3.30;99.90;;;;;;5069328;28;20513;-86
2021/12/08 00:32:48;;;;;;;5.28;2.42;;;2.60;99.90;;;;;;5068895;28;20439;-86
2021/12/08 00:35:15;;;;;;;8.98;2.80;;;2.60;99.90;;;;;;5051231;28;20082;-86
2021/12/08 00:37:41;;;;;;;5.95;2.85;;;2.70;99.90;;;;;;5068655;28;20055;-86
2021/12/08 00:40:10;;;;;;;7.13;2.60;;;2.70;99.90;;;;;;5050607;28;20041;-87
2021/12/08 00:42:36;;;;;;;7.10;2.47;;;2.70;99.90;;;;;;5052031;28;20136;-86
2021/12/08 00:45:04;;;;;;;6.03;2.55;;;2.70;99.90;;;;;;5067752;28;20056;-86
2021/12/08 00:47:30;;;;;;;6.43;2.22;;;5.00;99.90;;;;;;5067802;28;20443;-86
2021/12/08 00:49:56;;;;;;;7.45;2.63;;;4.40;99.90;;;;;;5067964;28;20044;-86
2021/12/08 00:52:24;;;;;;;6.80;2.72;;;2.70;99.90;;;;;;5067219;28;20648;-86
2021/12/08 00:54:50;;;;;;;6.65;2.47;;;2.80;99.90;;;;;;5035830;28;20101;-87
2021/12/08 00:57:16;;;;;;;7.28;2.13;;;2.80;99.90;;;;;;5050162;28;20040;-87
2021/12/08 00:59:42;;;;;;;6.18;2.53;;;2.80;99.90;;;;;;5051533;28;20040;-87
2021/12/08 01:02:07;;;;;;;10.32;3.03;;;2.80;99.90;;;;;;5034084;28;20127;-87
2021/12/08 01:04:34;;;;;;;4.40;2.00;;;2.80;99.90;;;;;;5050840;28;20123;-86
2021/12/08 01:07:00;;;;;;;8.57;2.50;;;3.90;99.90;;;;;;5069269;28;20048;-87
2021/12/08 01:09:26;;;;;;;10.90;2.05;;;5.10;99.90;;;;;;5033825;28;20385;-87
2021/12/08 01:11:52;;;;;;;4.47;2.13;;;2.90;99.90;;;;;;5034812;28;20052;-87
2021/12/08 01:14:18;;;;;;;7.25;2.08;;;2.90;99.90;;;;;;5050554;28;20059;-87
2021/12/08 01:16:45;;;;;;;6.07;2.20;;;3.00;99.90;;;;;;5051178;28;20387;-88
2021/12/08 01:19:11;;;;;;;6.18;1.90;;;3.00;99.90;;;;;;5033860;28;20051;-88
2021/12/08 01:21:36;;;;;;;5.03;1.90;;;2.90;99.90;;;;;;5067290;28;20040;-88
2021/12/08 01:24:02;;;;;;;9.50;2.45;;;3.00;99.90;;;;;;5051265;28;20226;-89
2021/12/08 01:26:28;;;;;;;8.07;2.00;;;3.10;99.90;;;;;;5033775;28;20376;-88
2021/12/08 01:28:57;;;;;;;6.35;2.50;;;3.10;99.90;;;;;;5067551;28;20044;-88
2021/12/08 01:31:25;;;;;;;5.65;2.08;;;4.90;99.90;;;;;;5033917;28;20044;-88
2021/12/08 01:33:51;;;;;;;4.43;2.63;;;4.70;99.90;;;;;;5051803;28;20121;-88
2021/12/08 01:36:17;;;;;;;7.07;2.15;;;5.00;99.90;;;;;;5050702;28;20492;-88
2021/12/08 01:38:44;;;;;;;6.07;2.10;;;4.50;99.90;;;;;;5033628;28;20051;-88
2021/12/08 01:41:10;;;;;;;6.57;1.90;;;5.60;99.90;;;;;;5066841;28;20135;-87
2021/12/08 01:45:57;;;;;;;3.78;2.03;;;4.40;99.90;;;;;;5049884;28;20127;-89
2021/12/08 01:46:28;;;;;;;7.43;2.10;;;3.30;99.90;;;;;;5067170;28;20496;-88
2021/12/08 01:48:54;;;;;;;5.65;1.63;;;3.40;99.90;;;;;;5066541;28;20396;-88
2021/12/08 01:51:20;;;;;;;2.58;1.83;;;3.40;99.90;;;;;;5050529;28;20202;-88
2021/12/08 01:53:49;;;;;;;4.15;1.75;;;1.60;99.90;;;;;;5050741;28;20072;-87
2021/12/08 01:56:15;;;;;;;4.35;1.67;;;3.40;99.90;;;;;;5049967;28;20136;-87
2021/12/08 01:58:41;;;;;;;4.88;1.75;;;3.40;99.90;;;;;;5050794;28;20041;-88
2021/12/08 02:01:13;;;;;;;9.23;1.95;;;3.50;99.90;;;;;;5049696;28;20107;-88
2021/12/08 02:03:41;;;;;;;10.23;2.00;;;3.50;99.90;;;;;;5067347;28;20060;-88
2021/12/08 02:06:09;;;;;;;5.07;2.25;;;3.50;99.90;;;;;;5065910;28;20466;-88
2021/12/08 02:08:36;;;;;;;4.20;2.25;;;3.50;99.90;;;;;;5032807;28;20044;-88
2021/12/08 02:11:03;;;;;;;11.50;1.77;;;3.50;99.90;;;;;;5050035;28;20045;-88
2021/12/08 02:13:36;;;;;;;4.45;2.03;;;3.60;99.90;;;;;;5033115;28;20064;-87
2021/12/08 02:16:04;;;;;;;8.13;1.80;;;3.50;99.90;;;;;;5050532;28;20109;-86
2021/12/08 02:18:30;;;;;;;3.92;2.15;;;3.60;99.90;;;;;;5048916;28;20500;-87
2021/12/08 02:21:02;;;;;;;6.88;2.17;;;3.60;99.90;;;;;;5033696;28;20099;-87
2021/12/08 02:23:30;;;;;;;5.88;2.30;;;3.60;99.90;;;;;;5050085;28;20049;-86
2021/12/08 02:25:57;;;;;;;8.57;2.50;;;5.70;99.90;;;;;;5066535;28;20133;-87
2021/12/08 02:28:22;;;;;;;4.68;1.90;;;4.40;99.90;;;;;;5066783;28;20051;-86
2021/12/08 02:30:58;;;;;;;4.63;2.33;;;3.60;99.90;;;;;;5032537;28;20040;-87
2021/12/08 02:49:58;;;;;;;5.65;2.13;;;3.70;99.90;;;;;;5068219;28;20150;-87
2021/12/08 02:52:24;;;;;;;9.70;2.28;;;3.70;99.90;;;;;;5033838;28;20049;-87
2021/12/08 02:54:52;;;;;;;6.65;2.35;;;5.30;99.90;;;;;;5052568;28;20056;-88
2021/12/08 02:57:24;;;;;;;5.63;2.00;;;5.80;99.90;;;;;;5067100;28;20482;-87
2021/12/08 02:59:50;;;;;;;6.40;2.05;;;3.70;99.90;;;;;;5066633;28;20053;-89
2021/12/08 03:02:16;;;;;;;7.47;2.15;;;3.70;99.90;;;;;;5033014;28;20046;-88
2021/12/08 03:04:42;;;;;;;8.38;1.90;;;4.50;99.90;;;;;;5049059;28;20064;-88
2021/12/08 03:07:08;;;;;;;9.48;2.40;;;3.80;99.90;;;;;;5049866;28;20041;-87
2021/12/08 03:09:34;;;;;;;4.18;1.90;;;3.80;99.90;;;;;;5048444;28;20048;-88
2021/12/08 03:12:01;;;;;;;5.00;2.08;;;3.80;99.90;;;;;;5066849;28;20048;-87
2021/12/08 03:14:30;;;;;;;5.88;1.95;;;3.80;99.90;;;;;;5032355;28;20040;-88
2021/12/08 03:16:59;;;;;;;2.38;1.67;;;3.80;99.90;;;;;;5049739;28;20063;-87
2021/12/08 03:19:26;;;;;;;4.03;2.08;;;3.80;99.90;;;;;;5049770;28;20045;-87
2021/12/08 03:21:54;;;;;;;7.30;2.60;;;3.10;99.90;;;;;;5036166;28;20044;-86
2021/12/08 03:24:30;;;;;;;6.10;2.10;;;3.90;99.90;;;;;;5070286;28;20470;-87
2021/12/08 03:27:08;;;;;;;3.60;2.28;;;3.90;99.90;;;;;;5037142;28;20056;-86
2021/12/08 03:32:14;;;;;;;4.60;2.20;;;3.90;99.90;;;;;;5069871;28;20131;-87
2021/12/08 03:34:50;;;;;;;7.20;2.65;;;3.90;99.90;;;;;;5052307;28;20499;-87
2021/12/08 03:37:17;;;;;;;2.45;2.05;;;3.90;99.90;;;;;;5053646;28;20041;-88
2021/12/08 03:39:44;;;;;;;4.85;2.30;;;4.10;99.90;;;;;;5035824;28;20036;-88
2021/12/08 03:42:10;;;;;;;5.43;2.58;;;3.90;99.90;;;;;;5036919;28;20480;-88
2021/12/08 03:44:37;;;;;;;7.22;2.70;;;3.90;99.90;;;;;;5052914;28;20094;-88
2021/12/08 03:47:12;;;;;;;6.30;2.45;;;5.60;99.90;;;;;;5052549;28;20045;-88
2021/12/08 03:49:38;;;;;;;5.00;2.78;;;3.90;99.90;;;;;;5052564;28;20045;-87
2021/12/08 03:52:04;;;;;;;5.55;3.00;;;3.90;99.90;;;;;;5035499;28;20071;-87
2021/12/08 03:54:30;;;;;;;7.63;2.92;;;3.90;99.90;;;;;;5052843;28;20102;-87
2021/12/08 03:56:56;;;;;;;6.72;2.85;;;4.00;99.90;;;;;;5068521;28;20132;-86
2021/12/08 03:59:22;;;;;;;15.55;3.28;;;4.00;99.90;;;;;;5053052;28;20040;-87
2021/12/08 04:01:47;;;;;;;4.68;2.70;;;4.00;99.90;;;;;;5068737;28;20040;-87
2021/12/08 04:04:14;;;;;;;6.78;3.00;;;4.00;99.90;;;;;;5052127;28;20084;-86
2021/12/08 04:06:52;;;;;;;6.88;3.70;;;4.00;99.90;;;;;;5052298;28;20078;-87
2021/12/08 04:09:27;;;;;;;6.55;2.72;;;4.10;99.90;;;;;;5051233;28;20054;-87
2021/12/08 04:11:54;;;;;;;6.05;3.20;;;4.10;99.90;;;;;;5052860;28;20041;-88
2021/12/08 04:14:25;;;;;;;6.90;3.28;;;4.10;99.90;;;;;;5051557;28;20053;-88
2021/12/08 04:16:56;;;;;;;7.93;3.97;;;4.20;99.90;;;;;;5055016;28;20044;-88
2021/12/08 04:19:22;;;;;;;10.52;3.63;;;6.20;99.90;;;;;;5055318;28;20530;-88
2021/12/08 04:21:51;;;;;;;7.05;3.63;;;4.20;99.90;;;;;;5071272;28;20080;-88
2021/12/08 04:24:17;;;;;;;12.07;3.42;;;4.80;99.90;;;;;;5039200;28;20040;-89
2021/12/08 04:26:45;;;;;;;7.43;3.75;;;6.20;99.90;;;;;;5038275;28;20031;-88
2021/12/08 04:29:13;;;;;;;4.88;3.65;;;6.50;99.90;;;;;;5057725;28;20097;-88
2021/12/08 04:31:41;;;;;;;7.47;4.32;;;6.50;99.90;;;;;;5056646;28;20087;-89
2021/12/08 04:34:14;;;;;;;5.40;3.55;;;4.30;99.90;;;;;;5056550;28;20415;-88
2021/12/08 04:36:45;;;;;;;5.72;4.35;;;5.40;99.90;;;;;;5056797;28;20130;-86
2021/12/08 04:42:36;;;;;;;6.03;4.43;;;6.00;99.90;;;;;;5072319;28;20730;-87
2021/12/08 04:45:10;;;;;;;6.28;3.58;;;4.40;99.90;;;;;;5071807;28;20040;-87
2021/12/08 04:47:48;;;;;;;5.65;4.40;;;4.40;99.90;;;;;;5071261;28;20121;-88
2021/12/08 04:53:07;;;;;;;6.60;4.38;;;4.40;99.90;;;;;;5071970;28;20083;-88
2021/12/08 05:01:24;;;;;;;5.78;4.35;;;4.60;99.90;;;;;;5057528;28;20068;-87
2021/12/08 05:06:49;;;;;;;9.05;4.68;;;5.90;99.90;;;;;;5071917;28;20395;-86
2021/12/08 05:09:24;;;;;;;15.02;5.15;;;6.90;99.90;;;;;;5070460;28;20290;-87
2021/12/08 05:11:54;;;;;;;10.38;4.57;;;5.80;99.90;;;;;;5071701;28;20380;-86
2021/12/08 05:14:24;;;;;;;6.50;4.53;;;4.60;99.90;;;;;;5070559;28;20054;-86
2021/12/08 05:16:55;;;;;;;5.72;4.80;;;4.60;99.90;;;;;;5053864;28;20087;-87
2021/12/08 05:19:26;;;;;;;9.88;5.10;;;4.60;99.90;;;;;;5054143;28;20483;-87
2021/12/08 05:22:03;;;;;;;8.18;4.65;;;6.90;99.90;;;;;;5053241;28;20040;-87
2021/12/08 05:24:33;;;;;;;7.13;4.80;;;4.60;99.90;;;;;;5071473;28;20051;-87
2021/12/08 05:27:07;;;;;;;11.13;5.57;;;5.40;99.90;;;;;;5053823;28;20040;-87
2021/12/08 05:29:46;;;;;;;11.05;5.40;;;4.70;99.90;;;;;;5089061;28;20105;-87
2021/12/08 05:32:12;;;;;;;8.98;5.13;;;4.70;99.90;;;;;;5054164;28;20075;-87
2021/12/08 05:34:39;;;;;;;12.13;5.05;;;4.80;99.90;;;;;;5069861;28;20073;-87
2021/12/08 05:37:10;;;;;;;8.05;5.05;;;5.00;99.90;;;;;;5054467;28;20036;-87
2021/12/08 05:39:37;;;;;;;10.55;5.45;;;6.40;99.90;;;;;;5053074;28;20036;-86
2021/12/08 05:42:16;;;;;;;6.63;4.90;;;5.50;99.90;;;;;;5070868;28;20044;-86
2021/12/08 05:44:43;;;;;;;12.27;5.28;;;5.10;99.90;;;;;;5070041;28;20051;-85
2021/12/08 05:47:18;;;;;;;7.82;5.43;;;5.00;99.90;;;;;;5053878;28;20048;-86
2021/12/08 05:49:44;;;;;;;11.10;5.07;;;5.00;99.90;;;;;;5070802;28;20131;-85
2021/12/08 05:52:10;;;;;;;12.00;4.68;;;5.00;99.90;;;;;;5069559;28;20043;-86
2021/12/08 05:54:42;;;;;;;7.63;4.97;;;7.00;99.90;;;;;;5054605;28;20109;-86
2021/12/08 05:57:14;;;;;;;6.57;4.47;;;5.10;99.90;;;;;;5053747;28;20047;-85
2021/12/08 05:59:42;;;;;;;6.65;4.05;;;5.10;99.90;;;;;;5088382;28;20042;-87
2021/12/08 06:02:16;;;;;;;6.05;4.72;;;6.00;99.90;;;;;;5070568;28;20429;-89
2021/12/08 06:04:42;;;;;;;8.88;4.63;;;5.20;99.90;;;;;;5053103;28;20043;-86
2021/12/08 06:07:09;;;;;;;9.18;4.65;;;6.90;99.90;;;;;;5037524;28;20046;-86
2021/12/08 06:09:36;;;;;;;10.10;5.20;;;7.10;99.90;;;;;;5087726;28;20032;-87
2021/12/08 06:12:05;;;;;;;6.90;4.85;;;7.00;99.90;;;;;;5070342;28;20044;-88
2021/12/08 06:14:33;;;;;;;7.68;4.60;;;5.30;99.90;;;;;;5070368;28;20044;-87
2021/12/08 06:17:11;;;;;;;8.60;4.00;;;5.30;99.90;;;;;;5053187;28;20048;-87
2021/12/08 06:19:40;;;;;;;8.18;4.50;;;7.00;99.90;;;;;;5070657;28;20126;-87
2021/12/08 06:22:07;;;;;;;6.82;4.30;;;5.70;99.90;;;;;;5069236;28;20048;-87
2021/12/08 06:24:34;;;;;;;8.98;5.05;;;5.40;99.90;;;;;;5053916;28;20090;-84
2021/12/08 06:27:00;;;;;;;6.68;4.30;;;6.70;99.90;;;;;;5088406;28;20140;-84
2021/12/08 06:29:25;;;;;;;9.60;4.57;;;5.40;99.90;;;;;;5069692;28;20128;-85
2021/12/08 06:31:54;;;;;;;6.43;4.35;;;5.40;99.90;;;;;;5070077;28;20135;-85
2021/12/08 06:34:21;;;;;;;9.75;4.18;;;5.50;99.90;;;;;;5053051;28;20097;-86
2021/12/08 06:37:11;;;;;;;7.38;4.22;;;7.00;99.90;;;;;;5053502;28;20036;-86
2021/12/08 06:40:11;;;;;;;5.90;4.32;;;5.50;99.90;;;;;;5068542;28;20132;-87
2021/12/08 06:42:40;;;;;;;11.40;4.53;;;5.50;99.90;;;;;;5069066;28;20044;-85
2021/12/08 06:45:09;;;;;;;10.27;4.15;;;5.50;99.90;;;;;;5069686;28;20101;-86
2021/12/08 06:47:35;;;;;;;8.65;4.35;;;5.50;99.90;;;;;;5068449;28;20036;-87
2021/12/08 06:50:11;;;;;;;5.45;4.00;;;5.50;99.90;;;;;;5037089;28;20048;-87
2021/12/08 06:52:38;;;;;;;10.27;4.22;;;5.50;99.90;;;;;;5052563;28;20044;-88
2021/12/08 06:55:18;;;;;;;11.05;3.70;;;5.70;99.90;;;;;;5054972;28;20040;-83
2021/12/08 06:58:09;;;;;;;17.33;4.45;;;5.60;99.90;;;;;;5057158;28;20044;-85
2021/12/08 07:00:57;;;;;;;8.63;3.75;;;5.60;99.90;;;;;;5072184;28;20499;-85
2021/12/08 07:04:05;;;;;;;7.57;3.20;;;5.60;99.90;;;;;;5056796;28;20044;-90
2021/12/08 07:09:12;;;;;;;6.28;3.40;;;5.50;99.90;;;;;;5072146;28;20084;-87
2021/12/08 07:11:38;;;;;;;7.88;3.80;;;5.50;99.90;;;;;;5073382;28;20089;-87
2021/12/08 07:14:04;;;;;;;6.90;3.55;;;7.30;99.90;;;;;;5056157;28;20036;-88
2021/12/08 07:16:34;;;;;;;9.88;3.83;;;5.40;99.90;;;;;;5073094;28;20421;-88
2021/12/08 07:19:11;;;;;;;10.57;3.60;;;5.40;99.90;;;;;;5055511;28;20052;-87
2021/12/08 07:21:43;;;;;;;9.18;3.90;;;6.20;99.90;;;;;;5053833;28;20055;-87
2021/12/08 07:24:17;;;;;;;5.10;3.08;;;5.40;99.90;;;;;;5055770;28;20044;-89
2021/12/08 07:26:44;;;;;;;7.30;3.10;;;5.40;99.90;;;;;;5070995;28;20094;-89
2021/12/08 07:29:13;;;;;;;7.97;3.30;;;5.30;99.90;;;;;;5054368;28;20055;-88
2021/12/08 07:31:46;;;;;;;17.42;3.38;;;5.30;99.90;;;;;;5055143;28;20040;-88
2021/12/08 07:34:18;;;;;;;4.50;2.20;;;6.10;99.90;;;;;;5070700;28;20396;-87
2021/12/08 07:36:48;;;;;;;9.55;3.10;;;5.30;99.90;;;;;;5071743;28;20325;-85
2021/12/08 07:39:22;;;;;;;10.10;3.00;;;5.20;99.90;;;;;;5053767;28;20040;-86
2021/12/08 07:41:52;;;;;;;11.90;3.20;;;5.20;99.90;;;;;;5054354;28;20076;-86
2021/12/08 07:44:20;;;;;;;8.68;3.53;;;7.10;99.90;;;;;;5054789;28;20496;-87
2021/12/08 07:47:04;;;;;;;4.32;2.45;;;5.10;99.90;;;;;;5036821;28;20036;-89
2021/12/08 07:49:39;;;;;;;7.03;2.72;;;5.90;99.90;;;;;;5072009;28;20406;-86
2021/12/08 07:52:10;;;;;;;10.18;2.80;;;5.90;99.90;;;;;;5055106;28;20047;-85
2021/12/08 07:54:38;;;;;;;8.98;2.40;;;6.90;99.90;;;;;;5071977;28;20071;-84
2021/12/08 07:57:08;;;;;;;5.68;2.50;;;5.50;99.90;;;;;;5055591;28;20131;-85
2021/12/08 07:59:36;;;;;;;4.43;2.53;;;7.50;99.90;;;;;;5055110;28;20093;-84
2021/12/08 08:02:07;;;;;;;7.63;2.55;;;6.10;99.90;;;;;;5056027;28;20079;-85
2021/12/08 08:04:37;;;;;;;4.82;2.17;;;6.40;99.90;;;;;;5090103;28;20044;-86
2021/12/08 08:07:05;;;;;;;5.93;2.33;;;5.70;99.90;;;;;;5070986;28;20051;-84
2021/12/08 08:09:36;;;;;;;3.83;1.90;;;5.10;99.90;;;;;;5054797;28;20052;-84
2021/12/08 08:12:04;;;;;;;3.83;1.77;;;5.10;99.90;;;;;;5056039;28;20040;-85
2021/12/08 08:14:39;;;;;;;5.45;1.35;;;5.20;99.90;;;;;;5091440;28;20047;-84
2021/12/08 08:17:12;;;;;;;11.35;2.00;;;5.10;99.90;;;;;;5068513;28;20076;-84
2021/12/08 08:19:44;;;;;;;6.10;1.83;;;5.10;99.90;;;;;;5053887;28;20451;-84
2021/12/08 08:22:16;;;;;;;7.13;1.45;;;5.20;99.90;;;;;;5069337;28;20103;-84
2021/12/08 08:24:42;;;;;;;10.65;2.10;;;5.20;99.90;;;;;;5068397;28;20044;-83
2021/12/08 08:27:10;;;;;;;2.67;1.23;;;7.20;99.90;;;;;;5068798;28;20051;-84
2021/12/08 08:29:37;;;;;;;5.72;1.40;;;5.30;99.90;;;;;;5068343;28;20126;-82
2021/12/08 08:32:25;;;;;;;4.32;2.13;;;5.20;99.90;;;;;;5068839;28;20045;-81
2021/12/08 08:35:04;;;;;;;4.15;1.30;;;5.30;99.90;;;;;;5067883;28;20143;-81
2021/12/08 08:37:31;;;;;;;9.07;1.55;;;7.50;99.90;;;;;;5051103;28;20090;-82
2021/12/08 08:40:04;;;;;;;4.47;1.63;;;5.80;99.90;;;;;;5050891;28;20076;-81
2021/12/08 08:42:38;;;;;;;4.65;1.77;;;5.40;99.90;;;;;;5066887;28;20054;-82
2021/12/08 08:45:25;;;;;;;8.18;1.77;;;5.30;99.90;;;;;;5067454;28;20131;-81
2021/12/08 08:48:10;;;;;;;7.50;2.25;;;5.40;99.90;;;;;;5065141;28;20044;-81
2021/12/08 08:50:55;;;;;;;5.80;2.17;;;5.40;99.90;;;;;;5067040;28;20041;-81
2021/12/08 08:53:25;;;;;;;7.93;1.55;;;5.40;99.90;;;;;;5066962;28;20044;-81
2021/12/08 08:55:58;;;;;;;8.18;1.38;;;7.30;99.90;;;;;;5049607;28;20524;-80
2021/12/08 08:58:26;;;;;;;3.30;1.27;;;5.40;99.90;;;;;;5068309;28;20112;-82
2021/12/08 09:01:04;;;;;;;6.05;1.23;;;5.40;99.90;;;;;;5066081;28;20487;-81
2021/12/08 09:03:34;;;;;;;7.03;1.25;;;5.50;99.90;;;;;;5066055;28;20446;-83
2021/12/08 09:06:18;;;;;;;5.43;1.20;;;5.50;99.90;;;;;;5051291;28;20424;-81
2021/12/08 09:08:46;;;;;;;8.68;1.60;;;5.60;99.90;;;;;;5064829;28;20483;-83
2021/12/08 09:11:35;;;;;;;4.45;1.17;;;7.60;99.90;;;;;;5069543;28;20048;-83
2021/12/08 09:14:16;;;;;;;5.40;1.20;;;5.70;99.90;;;;;;5052308;28;20119;-81
2021/12/08 09:16:53;;;;;;;5.82;1.23;;;5.70;99.90;;;;;;5068382;28;20109;-84
2021/12/08 09:19:32;;;;;;;10.95;1.80;;;5.80;99.90;;;;;;5054595;28;20153;-84
2021/12/08 09:22:06;;;;;;;3.85;1.27;;;5.70;99.90;;;;;;5054322;28;20055;-87
2021/12/08 09:24:50;;;;;;;5.43;0.98;;;4.40;99.90;;;;;;5055971;28;20550;-87
2021/12/08 09:27:25;;;;;;;7.00;1.10;;;5.70;99.90;;;;;;5056554;28;20079;-88
2021/12/08 09:29:57;;;;;;;5.43;1.13;;;5.70;99.90;;;;;;5055208;28;20044;-87
2021/12/08 09:32:58;;;;;;;4.30;0.95;;;5.80;99.90;;;;;;5072905;28;20047;-85
2021/12/08 09:35:37;;;;;;;7.45;1.23;;;5.70;99.90;;;;;;5054466;28;20050;-85
2021/12/08 09:38:39;;;;;;;8.75;1.05;;;5.70;99.90;;;;;;5053202;28;20046;-84
2021/12/08 09:41:11;;;;;;;8.77;0.98;;;5.70;99.90;;;;;;5051833;28;20101;-86
2021/12/08 09:43:49;;;;;;;7.82;1.50;;;5.70;99.90;;;;;;5071268;28;20036;-86
2021/12/08 09:46:43;;;;;;;5.93;1.20;;;5.90;99.90;;;;;;5054530;28;20131;-85
2021/12/08 09:49:15;;;;;;;4.63;1.05;;;5.70;99.90;;;;;;5090931;28;20491;-85
2021/12/08 09:51:42;;;;;;;2.53;0.50;;;7.20;99.90;;;;;;5053658;28;20457;-87
2021/12/08 09:54:09;;;;;;;5.43;1.13;;;5.80;99.90;;;;;;5056520;28;20298;-86
2021/12/08 09:56:35;;;;;;;7.35;1.15;;;5.70;99.90;;;;;;5054122;28;20051;-87
2021/12/08 09:59:06;;;;;;;5.15;1.50;;;5.80;99.90;;;;;;5054140;28;20119;-87
2021/12/08 10:01:33;;;;;;;9.30;1.48;;;6.60;99.90;;;;;;5054997;28;20052;-86
2021/12/08 10:04:11;;;;;;;9.13;1.27;;;6.80;99.90;;;;;;5071731;28;20128;-88
2021/12/08 10:06:38;;;;;;;9.70;1.25;;;6.00;99.90;;;;;;5056161;28;20081;-85
2021/12/08 10:09:05;;;;;;;9.65;1.38;;;7.60;99.90;;;;;;5054260;28;20044;-88
2021/12/08 10:11:32;;;;;;;3.70;1.10;;;7.10;99.90;;;;;;5038585;28;20652;-86
2021/12/08 10:13:59;;;;;;;5.70;1.17;;;6.10;99.90;;;;;;5053269;28;20148;-87
2021/12/08 10:16:27;;;;;;;8.05;1.30;;;6.10;99.90;;;;;;5070528;28;20406;-86
2021/12/08 10:18:55;;;;;;;3.20;0.98;;;6.20;99.90;;;;;;5053506;28;20063;-86
2021/12/08 10:21:21;;;;;;;5.85;1.20;;;6.20;99.90;;;;;;5068096;28;20177;-86
2021/12/08 10:23:48;;;;;;;4.00;1.17;;;6.30;99.90;;;;;;5036213;28;20040;-87
2021/12/08 10:26:21;;;;;;;7.93;1.20;;;6.30;99.90;;;;;;5050164;28;20054;-85
2021/12/08 10:28:50;;;;;;;9.05;1.48;;;6.30;99.90;;;;;;5068844;28;20051;-87
2021/12/08 10:31:27;;;;;;;6.97;1.13;;;6.30;99.90;;;;;;5070750;28;20066;-87
2021/12/08 10:36:48;;;;;;;4.38;1.35;;;6.30;99.90;;;;;;5073416;28;20201;-87
2021/12/08 10:39:16;;;;;;;7.32;0.88;;;6.40;99.90;;;;;;5055906;28;20040;-89
2021/12/08 10:41:46;;;;;;;6.90;1.35;;;6.40;99.90;;;;;;5055828;28;20299;-86
2021/12/08 10:44:12;;;;;;;7.03;1.50;;;6.40;99.90;;;;;;5072634;28;20040;-86
2021/12/08 10:46:38;;;;;;;4.50;0.98;;;6.50;99.90;;;;;;5055029;28;20462;-85
2021/12/08 10:54:22;;;;;;;7.38;1.02;;;6.50;99.90;;;;;;5073031;28;20595;-87
2021/12/08 10:54:51;;;;;;;2.90;0.82;;;8.80;99.90;;;;;;5041467;28;20036;-88
2021/12/08 10:57:31;;;;;;;10.07;1.10;;;8.60;99.90;;;;;;5056488;28;20403;-90
2021/12/08 11:00:18;;;;;;;8.93;1.23;;;6.60;99.90;;;;;;5071691;28;20055;-91
2021/12/08 11:03:04;;;;;;;5.97;0.90;;;6.60;99.90;;;;;;5057377;28;20132;-92
2021/12/08 11:06:04;;;;;;;6.88;1.38;;;6.60;99.90;;;;;;5072135;28;20067;-91
2021/12/08 11:08:32;;;;;;;9.43;1.02;;;4.80;99.90;;;;;;5064392;28;20059;-90
2021/12/08 11:11:00;;;;;;;5.03;1.00;;;6.60;99.90;;;;;;5056596;28;20047;-89
2021/12/08 11:13:34;;;;;;;12.52;1.23;;;6.50;99.90;;;;;;5054551;28;20051;-89
2021/12/08 11:16:13;;;;;;;13.00;1.65;;;6.60;99.90;;;;;;5056260;28;20087;-90
2021/12/08 11:18:41;;;;;;;5.78;1.40;;;6.50;99.90;;;;;;5056029;28;20064;-91
2021/12/08 11:21:28;;;;;;;2.60;1.10;;;6.50;99.90;;;;;;5074446;28;20071;-91
2021/12/08 11:23:57;;;;;;;4.88;1.45;;;6.50;99.90;;;;;;5060558;28;20043;-89
2021/12/08 11:26:37;;;;;;;7.53;1.25;;;6.50;99.90;;;;;;5057157;28;20123;-89
2021/12/08 11:29:12;;;;;;;8.77;1.25;;;7.80;99.90;;;;;;5056837;28;20044;-91
2021/12/08 11:31:48;;;;;;;7.05;1.33;;;6.50;99.90;;;;;;5056024;28;20044;-90
2021/12/08 11:34:31;;;;;;;8.00;1.30;;;6.60;99.90;;;;;;5053292;28;20399;-90
2021/12/08 11:37:05;;;;;;;8.90;1.25;;;6.50;99.90;;;;;;5072520;28;20048;-89
2021/12/08 11:39:38;;;;;;;11.25;1.15;;;6.60;99.90;;;;;;5053729;28;20109;-89
2021/12/08 11:42:06;;;;;;;;;;;6.60;99.90;;;;;;5071672;28;20048;-89
2021/12/08 11:44:37;;;;;;;8.82;1.30;;;6.60;99.90;;;;;;5071522;28;20379;-90
2021/12/08 11:47:07;;;;;;;3.13;1.05;;;8.60;99.90;;;;;;5054641;28;20402;-89
2021/12/08 11:49:34;;;;;;;5.28;0.88;;;8.30;99.90;;;;;;5072561;28;20047;-89
2021/12/08 11:52:06;;;;;;;6.22;1.05;;;7.60;99.90;;;;;;5053928;28;20063;-92
2021/12/08 11:54:49;;;;;;;8.65;1.30;;;6.60;99.90;;;;;;5072063;28;20047;-86
2021/12/08 11:57:27;;;;;;;7.50;1.73;;;6.70;99.90;;;;;;5054703;28;20044;-87
2021/12/08 12:00:01;;;;;;;6.22;1.20;;;7.40;99.90;;;;;;5055660;28;20040;-86
2021/12/08 12:02:40;;;;;;;3.92;0.80;;;6.70;99.90;;;;;;5074324;28;20052;-87
2021/12/08 12:05:13;;;;;;;4.95;0.93;;;6.70;99.90;;;;;;5070446;28;20127;-86
2021/12/08 12:07:39;;;;;;;;;;;6.70;99.90;;;;;;5054591;28;20048;-85
2021/12/08 12:10:09;;;;;;;4.28;1.15;;;6.70;99.90;;;;;;5038055;28;19920;-86
2021/12/08 12:12:37;;;;;;;6.63;1.20;;;6.70;99.90;;;;;;5069861;28;20080;-85
2021/12/08 12:15:05;;;;;;;6.95;1.30;;;6.60;99.90;;;;;;5071558;28;20591;-87
2021/12/08 12:17:31;;;;;;;13.10;1.75;;;6.60;99.90;;;;;;5052386;28;20063;-84
2021/12/08 12:20:03;;;;;;;6.45;1.13;;;6.60;99.90;;;;;;5071965;28;20182;-84
2021/12/08 12:22:49;;;;;;;10.75;1.10;;;6.60;99.90;;;;;;5070316;28;20052;-84
2021/12/08 12:25:38;;;;;;;7.13;1.40;;;8.50;99.90;;;;;;5069891;28;20044;-84
2021/12/08 12:28:42;;;;;;;8.07;1.20;;;6.50;99.90;;;;;;5054087;28;20503;-84
2021/12/08 12:31:17;;;;;;;;;;;6.50;99.90;;;;;;5070128;28;20487;-85
2021/12/08 12:33:44;;;;;;;12.00;1.77;;;6.50;99.90;;;;;;5053232;28;20321;-83
2021/12/08 12:36:22;;;;;;;8.25;1.45;;;8.90;99.90;;;;;;5071282;28;20144;-84
2021/12/08 12:38:48;;;;;;;20.67;2.28;;;6.50;99.90;;;;;;5087175;28;20052;-84
2021/12/08 12:41:30;;;;;;;11.63;1.27;;;6.50;99.90;;;;;;5071558;28;20051;-87
2021/12/08 12:44:14;;;;;;;8.65;1.15;;;6.50;99.90;;;;;;5054673;28;20149;-86
2021/12/08 12:47:03;;;;;;;6.72;1.48;;;6.40;99.90;;;;;;5070072;28;20067;-84
2021/12/08 12:49:30;;;;;;;7.80;1.15;;;6.40;99.90;;;;;;5076360;28;20055;-85
2021/12/08 12:52:00;;;;;;;11.82;1.38;;;6.40;99.90;;;;;;5068857;28;20048;-85
2021/12/08 12:54:29;;;;;;;7.13;1.25;;;6.40;99.90;;;;;;5069431;28;20452;-85
2021/12/08 12:56:57;;;;;;;5.97;1.35;;;8.40;99.90;;;;;;5070121;28;20040;-83
2021/12/08 12:59:27;;;;;;;3.65;1.20;;;6.30;99.90;;;;;;5070522;28;20036;-82
2021/12/08 13:02:11;;;;;;;4.20;0.98;;;6.30;99.90;;;;;;5070808;28;20044;-82
2021/12/08 13:04:57;;;;;;;3.85;1.15;;;6.30;99.90;;;;;;5052480;28;20052;-85
2021/12/08 13:07:28;;;;;;;4.57;1.40;;;6.60;99.90;;;;;;5070717;28;20044;-83
2021/12/08 13:09:57;;;;;;;2.05;0.80;;;8.30;99.90;;;;;;5037161;28;20070;-82
2021/12/08 13:12:38;;;;;;;8.85;1.33;;;6.30;99.90;;;;;;5068863;28;20048;-84
2021/12/08 13:15:20;;;;;;;5.35;1.20;;;6.40;99.90;;;;;;5054715;28;20047;-84
2021/12/08 13:18:08;;;;;;;7.60;1.73;;;6.40;99.90;;;;;;5087986;28;20052;-84
2021/12/08 13:20:37;;;;;;;5.30;1.67;;;6.40;99.90;;;;;;5089152;28;20067;-84
2021/12/08 13:23:06;;;;;;;7.43;1.08;;;8.50;99.90;;;;;;5071520;28;20047;-82
2021/12/08 13:26:09;;;;;;;8.20;1.55;;;7.40;99.90;;;;;;5070795;28;20571;-86
2021/12/08 13:28:38;;;;;;;7.50;1.75;;;8.70;99.90;;;;;;5073919;28;20537;-85
2021/12/08 13:31:30;;;;;;;3.80;1.55;;;6.10;99.90;;;;;;5053419;28;20051;-85
2021/12/08 13:33:59;;;;;;;3.85;0.95;;;6.30;99.90;;;;;;5054706;28;20514;-85
2021/12/08 13:36:31;;;;;;;6.40;1.35;;;8.20;99.90;;;;;;5089969;28;20083;-84
2021/12/08 13:38:57;;;;;;;2.17;1.00;;;5.50;99.90;;;;;;5053032;28;20104;-85
2021/12/08 13:41:29;;;;;;;9.45;1.52;;;6.30;99.90;;;;;;5054340;28;20566;-82
2021/12/08 13:43:57;;;;;;;5.13;1.80;;;6.30;99.90;;;;;;5068175;28;20086;-81
2021/12/08 13:46:41;;;;;;;5.55;1.30;;;8.00;99.90;;;;;;5052140;28;20044;-82
2021/12/08 13:49:26;;;;;;;9.50;1.88;;;7.20;99.90;;;;;;5070903;28;20040;-84
2021/12/08 13:52:07;;;;;;;5.85;1.88;;;6.30;99.90;;;;;;5051931;28;20518;-83
2021/12/08 13:54:45;;;;;;;2.30;1.05;;;6.30;99.90;;;;;;5070684;28;20036;-84
2021/12/08 13:57:53;;;;;;;5.53;1.27;;;6.30;99.90;;;;;;5088625;28;20085;-85
2021/12/08 14:00:28;;;;;;;4.57;1.17;;;6.30;99.90;;;;;;5086701;28;20398;-85
2021/12/08 14:03:20;;;;;;;7.07;1.10;;;6.30;99.90;;;;;;5055439;28;20048;-87
2021/12/08 14:05:59;;;;;;;7.83;1.43;;;6.30;99.90;;;;;;5072580;28;20048;-88